Hauptseite
METAR-TAF:

METAR-TAF

Flughäfen :

Hahn, Deutschland

Flughafen Frankfurt-Hahn

Breite: 49-57N, Länge: 007-16E, Höhe: 491 m

Beobachtung

Neuester Wetterbericht von vor 37 Minuten, um 11:20 UTC
Wind 5 kt aus West/Nordwest, variierte zwischen Südwest und Nord/Nordost
Temperatur 18°C
Luftfeuchtigkeit 56%
Luftdruck 1024 hPa
Sichtweite 10 km oder mehr
keine Wolken unter 1500 m und keine Kumulonimbus oder Gewitterwolken

METAR: EDFH 211120Z 29005KT 230V020 CAVOK 18/09 Q1024

Zeit: 13:57 (11:57 UTC)

Prognose

Neuester Wetterbericht von vor 57 Minuten, um 11:00 UTC
Gültige Prognose vom 21 um 12 UTC bis 22 um 12 UTC
Wind 4 kt aus West
Sichtweite 10 km oder mehr
Leicht bewölkt in der Höhe von 4500 ft
Übergehend zu
vom 21 um 18 UTC bis 21 um 22 UTC
Wind 5 kt aus Süd/Südost

TAF: EDFH 211100Z 2112/2212 27004KT 9999 FEW045 BECMG 2118/2122 15005KT

Wetterbeobachtungen und Prognosen von mehr als 4000 Flughäfen (METAR und TAF Bericht).

Die verfügbaren Stationen werden durch gelbe und rote Markierungen auf der Karte dargestellt.

Führen Sie die Maus auf sie, um den Namen der Station zu sehen.

Darauf klicken, um die Beobachtung von Wetterbeobachtungen und Prognosen zu sehen.

Um die Karte zu ändern : klicken Sie auf den grünen Tasten mit einem schwarzen Kreuz Zum Vergrößern, auf den grünen Button mit einem Gedankenstrich zu verkleinern, oder auf die grünen Pfeile für benachbarte Karten.


METAR-TAF: